Time;durP1;ratioP1;P1;durP2;ratioP2;P2;SDS_P1;SDS_P2;PMS_P1;PMS_P2;Temp;Humidity;BMP_temperature;BMP_pressure;BME280_temperature;BME280_humidity;BME280_pressure;Samples;Min_cycle;Max_cycle;Signal;HPM_P1;HPM_P2
2021/09/19 00:02:03;;;;;;;5.78;3.87;;;;;;;12.07;79.07;97215.91;1759525;81;21004;-84
2021/09/19 00:04:30;;;;;;;6.12;4.35;;;;;;;12.12;79.37;97217.01;1765202;81;21047;-84
2021/09/19 00:06:57;;;;;;;7.45;4.25;;;;;;;12.11;79.23;97215.30;1726125;81;21445;-84
2021/09/19 00:09:24;;;;;;;7.67;4.58;;;;;;;12.12;79.24;97220.99;1721638;82;21022;-84
2021/09/19 00:11:50;;;;;;;7.97;4.85;;;;;;;12.12;79.45;97216.55;1744848;82;21037;-83
2021/09/19 00:14:17;;;;;;;5.22;4.33;;;;;;;12.08;79.94;97218.95;1758098;81;20937;-83
2021/09/19 00:16:45;;;;;;;7.12;4.67;;;;;;;12.07;79.92;97219.03;1765037;80;20985;-84
2021/09/19 00:19:12;;;;;;;6.95;5.28;;;;;;;12.01;79.66;97207.73;1765096;81;21024;-84
2021/09/19 00:21:40;;;;;;;6.28;4.90;;;;;;;12.01;79.37;97211.72;1764992;81;21012;-83
2021/09/19 00:24:08;;;;;;;7.87;4.58;;;;;;;12.04;79.44;97216.02;1765231;80;21067;-83
2021/09/19 00:26:34;;;;;;;7.12;5.20;;;;;;;12.09;79.42;97218.50;1764798;81;20978;-82
2021/09/19 00:29:01;;;;;;;10.68;4.67;;;;;;;12.11;79.16;97212.19;1772319;81;21467;-83
2021/09/19 00:31:28;;;;;;;6.78;4.75;;;;;;;12.13;78.83;97219.59;1744838;81;21009;-83
2021/09/19 00:33:54;;;;;;;5.72;4.65;;;;;;;12.12;78.79;97215.68;1724881;81;21467;-83
2021/09/19 00:36:22;;;;;;;8.70;5.40;;;;;;;12.13;78.73;97224.91;1715716;81;21058;-83
2021/09/19 00:38:49;;;;;;;7.17;5.37;;;;;;;12.10;80.23;97216.23;1758986;81;21044;-83
2021/09/19 00:41:15;;;;;;;7.30;5.45;;;;;;;12.07;79.54;97217.25;1757524;81;20986;-83
2021/09/19 00:43:42;;;;;;;7.10;5.00;;;;;;;12.04;78.93;97211.20;1733065;82;21524;-83
2021/09/19 00:46:08;;;;;;;9.10;6.03;;;;;;;11.96;80.88;97209.75;1721080;82;20986;-83
2021/09/19 00:48:35;;;;;;;8.78;5.50;;;;;;;11.91;79.85;97213.09;1744640;82;21054;-83
2021/09/19 00:51:03;;;;;;;8.40;6.60;;;;;;;11.81;81.67;97218.00;1761941;80;21032;-83
2021/09/19 00:53:32;;;;;;;9.78;6.78;;;;;;;11.75;80.86;97207.19;1763594;81;21016;-83
2021/09/19 00:56:04;;;;;;;9.98;6.95;;;;;;;11.67;81.50;97211.14;1750389;81;21034;-83
2021/09/19 00:58:34;;;;;;;8.60;6.00;;;;;;;11.66;80.81;97211.60;1727250;82;20977;-83
2021/09/19 01:01:02;;;;;;;7.60;6.30;;;;;;;11.65;81.70;97213.87;1732870;82;21077;-84
2021/09/19 01:03:29;;;;;;;8.50;5.37;;;;;;;11.67;81.08;97216.45;1762811;80;20960;-83
2021/09/19 01:05:58;;;;;;;6.62;5.10;;;;;;;11.67;81.84;97214.64;1765116;81;21445;-82
2021/09/19 01:08:24;;;;;;;10.90;5.95;;;;;;;11.70;80.91;97220.27;1765280;81;21332;-83
2021/09/19 01:10:52;;;;;;;5.97;4.90;;;;;;;11.71;81.13;97217.55;1764770;81;21075;-83
2021/09/19 01:13:19;;;;;;;7.37;5.65;;;;;;;11.75;81.34;97209.84;1763457;81;21040;-83
2021/09/19 01:15:48;;;;;;;7.33;5.10;;;;;;;11.79;81.90;97207.06;1744908;82;21444;-84
2021/09/19 01:18:17;;;;;;;9.65;5.40;;;;;;;11.82;81.56;97208.22;1745045;82;21421;-83
2021/09/19 01:20:45;;;;;;;9.58;5.42;;;;;;;11.83;81.45;97193.55;1735153;81;21035;-83
2021/09/19 01:23:13;;;;;;;9.40;5.62;;;;;;;11.88;81.32;97194.19;1733347;82;21085;-84
2021/09/19 01:25:44;;;;;;;6.75;5.22;;;;;;;11.90;81.36;97196.78;1727786;81;21077;-83
2021/09/19 01:28:12;;;;;;;5.65;4.97;;;;;;;11.93;81.29;97192.66;1775161;81;21054;-83
2021/09/19 01:30:39;;;;;;;12.85;5.97;;;;;;;12.00;81.58;97183.94;1764924;81;20996;-83
2021/09/19 01:33:06;;;;;;;5.50;4.40;;;;;;;12.00;81.53;97187.43;1733451;82;21001;-83
2021/09/19 01:35:33;;;;;;;6.40;4.67;;;;;;;12.03;81.61;97189.08;1741857;81;21003;-83
2021/09/19 01:38:01;;;;;;;7.05;3.98;;;;;;;12.05;81.47;97187.26;1739028;81;21039;-83
2021/09/19 01:40:28;;;;;;;8.70;4.65;;;;;;;12.10;81.33;97171.95;1713045;83;20988;-83
2021/09/19 01:42:57;;;;;;;5.60;4.10;;;;;;;12.13;80.97;97174.44;1731305;83;21067;-83
2021/09/19 01:45:25;;;;;;;6.62;4.90;;;;;;;12.16;80.74;97185.88;1737441;81;20941;-83
2021/09/19 01:47:52;;;;;;;6.65;4.53;;;;;;;12.21;80.67;97180.70;1750846;80;21045;-82
2021/09/19 01:50:21;;;;;;;7.20;5.33;;;;;;;12.26;80.53;97177.84;1744188;82;21093;-83
2021/09/19 01:52:49;;;;;;;7.28;5.17;;;;;;;12.26;80.10;97195.11;1744751;82;21069;-83
2021/09/19 01:55:16;;;;;;;6.15;4.78;;;;;;;12.27;80.56;97186.19;1735824;82;21032;-83
2021/09/19 01:57:42;;;;;;;6.20;4.67;;;;;;;12.31;80.74;97186.89;1759409;81;20996;-83
2021/09/19 02:00:11;;;;;;;5.83;4.78;;;;;;;12.32;80.15;97184.16;1765111;81;21001;-83
2021/09/19 02:02:39;;;;;;;5.95;4.70;;;;;;;12.34;79.88;97176.13;1765138;81;21519;-82
2021/09/19 02:05:09;;;;;;;6.10;4.85;;;;;;;12.33;80.16;97180.56;1756191;80;21057;-83
2021/09/19 02:07:38;;;;;;;8.53;5.00;;;;;;;12.32;80.01;97176.65;1744868;82;21025;-83
2021/09/19 02:10:09;;;;;;;9.08;5.53;;;;;;;12.32;79.89;97164.69;1759015;81;21047;-82
2021/09/19 02:12:39;;;;;;;10.18;5.60;;;;;;;12.30;79.58;97158.16;1728375;82;21010;-81
2021/09/19 02:15:09;;;;;;;7.95;5.33;;;;;;;12.24;79.96;97155.33;1739046;82;21008;-81
2021/09/19 02:17:36;;;;;;;7.00;5.50;;;;;;;12.20;80.05;97159.55;1739202;80;20978;-81
2021/09/19 02:20:06;;;;;;;6.17;5.20;;;;;;;12.11;80.60;97166.16;1757514;81;21451;-81
2021/09/19 02:22:32;;;;;;;7.22;5.30;;;;;;;12.06;80.58;97172.16;1715385;84;21046;-81
2021/09/19 02:25:01;;;;;;;7.90;5.37;;;;;;;11.98;80.17;97175.16;1715357;84;21541;-81
2021/09/19 02:27:27;;;;;;;9.78;5.08;;;;;;;11.92;79.83;97168.83;1715258;84;21010;-81
2021/09/19 02:29:54;;;;;;;9.00;5.45;;;;;;;11.86;80.47;97176.61;1746790;81;20966;-81
2021/09/19 02:32:20;;;;;;;7.35;5.55;;;;;;;11.84;80.31;97178.01;1765263;81;21028;-82
2021/09/19 02:34:47;;;;;;;10.32;5.78;;;;;;;11.81;80.71;97175.98;1764356;81;20961;-81
2021/09/19 02:37:13;;;;;;;6.85;5.30;;;;;;;11.80;80.83;97174.27;1736186;82;21518;-81
2021/09/19 02:39:40;;;;;;;10.20;6.00;;;;;;;11.80;80.88;97170.28;1731442;81;20967;-81
2021/09/19 02:42:07;;;;;;;7.22;5.97;;;;;;;11.80;81.10;97172.94;1744909;82;21057;-82
2021/09/19 02:44:33;;;;;;;8.43;5.40;;;;;;;11.82;81.02;97171.05;1744986;82;21427;-82
2021/09/19 02:47:00;;;;;;;6.55;5.28;;;;;;;11.82;81.30;97174.58;1749124;79;21002;-80
2021/09/19 02:49:26;;;;;;;7.60;5.08;;;;;;;11.84;81.20;97173.19;1784030;80;20994;-81
2021/09/19 02:51:53;;;;;;;6.95;5.08;;;;;;;11.86;80.75;97166.87;1759590;80;21414;-81
2021/09/19 02:54:19;;;;;;;8.25;5.40;;;;;;;11.87;81.00;97167.25;1741966;82;21061;-81
2021/09/19 02:56:46;;;;;;;6.53;5.05;;;;;;;11.88;81.01;97172.11;1742319;81;21617;-81
2021/09/19 02:59:12;;;;;;;6.53;4.90;;;;;;;11.90;80.67;97174.21;1738225;82;21073;-81
2021/09/19 03:01:39;;;;;;;7.53;4.90;;;;;;;11.92;80.80;97172.33;1739504;80;20992;-81
2021/09/19 03:04:06;;;;;;;7.90;5.08;;;;;;;11.94;81.05;97177.11;1773951;80;21018;-80
2021/09/19 03:06:33;;;;;;;7.17;4.92;;;;;;;11.92;80.98;97174.98;1752329;82;21522;-81
2021/09/19 03:08:59;;;;;;;6.17;4.53;;;;;;;11.89;80.82;97173.34;1727443;81;21020;-81
2021/09/19 03:11:26;;;;;;;13.18;4.75;;;;;;;11.91;81.13;97171.09;1723751;81;21448;-81
2021/09/19 03:13:53;;;;;;;6.95;5.03;;;;;;;11.93;81.23;97172.75;1779116;81;20921;-82
2021/09/19 03:16:21;;;;;;;6.58;4.67;;;;;;;11.92;82.28;97169.67;1779154;80;21084;-82
2021/09/19 03:18:47;;;;;;;6.37;4.67;;;;;;;11.90;81.27;97171.55;1783438;80;21436;-82
2021/09/19 03:21:15;;;;;;;5.53;4.40;;;;;;;11.93;81.52;97177.19;1784134;80;21006;-81
2021/09/19 03:23:42;;;;;;;10.70;4.60;;;;;;;11.96;81.22;97174.39;1758673;80;21049;-82
2021/09/19 03:26:08;;;;;;;6.80;4.30;;;;;;;12.01;81.40;97169.72;1753979;80;21027;-82
2021/09/19 03:28:35;;;;;;;8.30;4.30;;;;;;;12.06;81.62;97166.85;1731274;82;21004;-82
2021/09/19 03:31:02;;;;;;;5.42;3.90;;;;;;;12.08;81.78;97172.97;1723334;83;21012;-82
2021/09/19 03:33:28;;;;;;;7.62;4.03;;;;;;;12.11;81.54;97175.45;1757780;81;21087;-81
2021/09/19 03:35:55;;;;;;;6.22;3.90;;;;;;;12.11;81.57;97172.34;1757315;80;21449;-82
2021/09/19 03:38:21;;;;;;;5.47;4.40;;;;;;;12.15;81.60;97166.41;1723713;83;21041;-81
2021/09/19 03:40:47;;;;;;;6.78;4.08;;;;;;;12.20;81.54;97168.36;1723522;83;20994;-81
2021/09/19 03:43:14;;;;;;;7.00;3.77;;;;;;;12.27;81.55;97164.94;1738916;81;21113;-82
2021/09/19 03:45:41;;;;;;;5.50;3.67;;;;;;;12.36;81.49;97170.25;1753446;82;21025;-82
2021/09/19 03:48:09;;;;;;;4.40;3.35;;;;;;;12.41;81.30;97165.11;1772564;80;20967;-82
2021/09/19 03:50:36;;;;;;;5.08;3.95;;;;;;;12.40;80.87;97164.72;1778351;81;21467;-82
2021/09/19 03:53:03;;;;;;;6.00;4.15;;;;;;;12.36;81.07;97168.92;1756325;81;21006;-82
2021/09/19 03:55:30;;;;;;;4.53;3.90;;;;;;;12.39;80.89;97164.80;1757663;81;20964;-82
2021/09/19 03:57:59;;;;;;;5.17;3.87;;;;;;;12.36;80.90;97164.94;1750987;82;21047;-82
2021/09/19 04:00:26;;;;;;;7.25;3.87;;;;;;;12.35;80.76;97164.09;1757028;81;20989;-82
2021/09/19 04:02:52;;;;;;;6.20;4.25;;;;;;;12.35;80.62;97165.42;1757165;81;21038;-82
2021/09/19 04:05:19;;;;;;;8.00;4.10;;;;;;;12.33;80.75;97171.27;1749875;82;20957;-82
2021/09/19 04:07:45;;;;;;;6.50;4.25;;;;;;;12.32;80.62;97162.03;1733763;81;21496;-82
2021/09/19 04:10:12;;;;;;;7.97;5.28;;;;;;;12.32;80.60;97164.23;1733874;82;21021;-82
2021/09/19 04:12:40;;;;;;;5.45;4.28;;;;;;;12.33;80.35;97164.63;1738030;82;20988;-82
2021/09/19 04:15:09;;;;;;;6.95;4.58;;;;;;;12.30;80.38;97164.80;1717200;83;21008;-82
2021/09/19 04:17:35;;;;;;;6.08;4.28;;;;;;;12.31;80.14;97162.52;1744652;81;21474;-82
2021/09/19 04:20:04;;;;;;;10.25;4.65;;;;;;;12.27;79.99;97160.50;1759384;81;21003;-82
2021/09/19 04:22:31;;;;;;;4.92;4.17;;;;;;;12.26;80.27;97165.39;1750140;82;21011;-82
2021/09/19 04:24:59;;;;;;;6.35;4.72;;;;;;;12.23;80.86;97164.23;1756985;82;20993;-83
2021/09/19 04:27:26;;;;;;;8.60;4.70;;;;;;;12.22;80.56;97161.65;1757186;81;21092;-82
2021/09/19 04:29:52;;;;;;;7.08;4.45;;;;;;;12.20;80.51;97163.53;1731008;81;21056;-82
2021/09/19 04:32:21;;;;;;;7.60;4.30;;;;;;;12.18;80.55;97164.94;1738793;81;20983;-82
2021/09/19 04:34:47;;;;;;;5.53;4.25;;;;;;;12.17;80.80;97174.30;1747900;82;20963;-82
2021/09/19 04:37:16;;;;;;;7.22;4.10;;;;;;;12.16;80.40;97157.49;1747877;82;21010;-83
2021/09/19 04:39:43;;;;;;;6.67;4.25;;;;;;;12.18;80.15;97156.09;1752627;81;21350;-82
2021/09/19 04:42:11;;;;;;;6.40;4.15;;;;;;;12.18;80.31;97166.72;1750854;82;21508;-82
2021/09/19 04:44:38;;;;;;;5.78;4.40;;;;;;;12.18;80.85;97158.30;1757026;82;20996;-82
2021/09/19 04:47:04;;;;;;;4.92;4.28;;;;;;;12.17;80.98;97167.20;1750510;81;20994;-82
2021/09/19 04:49:31;;;;;;;4.75;3.77;;;;;;;12.17;80.71;97163.22;1744254;81;21010;-83
2021/09/19 04:51:57;;;;;;;4.90;4.00;;;;;;;12.14;81.95;97173.98;1731341;81;20980;-82
2021/09/19 04:54:24;;;;;;;7.75;4.72;;;;;;;12.16;81.34;97185.88;1713670;83;21050;-81
2021/09/19 04:56:51;;;;;;;6.30;4.33;;;;;;;12.16;80.75;97180.07;1729262;82;21459;-82
2021/09/19 04:59:17;;;;;;;6.50;4.70;;;;;;;12.14;81.30;97181.47;1744878;82;21023;-82
2021/09/19 05:01:43;;;;;;;4.80;4.10;;;;;;;12.16;80.89;97182.73;1745099;81;20982;-82
2021/09/19 05:04:10;;;;;;;6.50;4.75;;;;;;;12.19;80.96;97173.29;1744487;82;21109;-83
2021/09/19 05:06:36;;;;;;;5.55;4.08;;;;;;;12.24;81.16;97179.23;1694529;84;20977;-83
2021/09/19 05:09:03;;;;;;;5.37;4.22;;;;;;;12.28;81.19;97178.16;1717436;83;21035;-82
2021/09/19 05:11:29;;;;;;;7.47;4.35;;;;;;;12.31;81.55;97184.23;1727555;82;21032;-82
2021/09/19 05:13:56;;;;;;;6.95;4.72;;;;;;;12.32;81.07;97177.52;1728388;81;21397;-83
2021/09/19 05:16:22;;;;;;;7.20;4.15;;;;;;;12.34;81.50;97179.62;1750820;81;20947;-82
2021/09/19 05:18:49;;;;;;;5.12;4.12;;;;;;;12.35;80.88;97179.16;1750879;81;21014;-82
2021/09/19 05:21:15;;;;;;;7.42;4.17;;;;;;;12.43;81.08;97180.11;1774331;81;21057;-82
2021/09/19 05:23:42;;;;;;;5.10;4.30;;;;;;;12.47;81.16;97189.19;1775377;81;21049;-82
2021/09/19 05:26:08;;;;;;;6.17;4.10;;;;;;;12.51;81.07;97184.09;1772966;81;20989;-82
2021/09/19 05:28:36;;;;;;;4.40;3.77;;;;;;;12.54;81.60;97186.60;1748044;81;21460;-82
2021/09/19 05:31:03;;;;;;;5.55;3.60;;;;;;;12.51;81.72;97194.72;1756649;81;21026;-82
2021/09/19 05:33:29;;;;;;;4.83;3.65;;;;;;;12.53;81.50;97191.98;1732382;82;21040;-83
2021/09/19 05:35:56;;;;;;;4.33;3.50;;;;;;;12.56;81.67;97194.95;1756492;81;20995;-83
2021/09/19 05:38:22;;;;;;;4.50;4.10;;;;;;;12.62;81.58;97186.20;1748987;81;21092;-83
2021/09/19 05:40:49;;;;;;;8.18;4.30;;;;;;;12.68;81.52;97185.89;1723222;83;21083;-83
2021/09/19 05:43:16;;;;;;;4.28;3.87;;;;;;;12.75;81.31;97181.12;1735522;81;21413;-83
2021/09/19 05:45:42;;;;;;;34.10;20.75;;;;;;;12.74;80.87;97183.88;1762178;80;21024;-83
2021/09/19 05:48:08;;;;;;;10.65;5.92;;;;;;;12.74;80.99;97173.25;1741471;80;21061;-83
2021/09/19 05:50:35;;;;;;;7.72;5.33;;;;;;;12.72;80.94;97179.09;1747379;82;20996;-83
2021/09/19 05:53:03;;;;;;;5.60;4.70;;;;;;;12.71;81.00;97176.89;1733588;81;20953;-83
2021/09/19 05:55:29;;;;;;;7.80;4.78;;;;;;;12.69;81.09;97182.77;1779284;80;20992;-83
2021/09/19 05:57:55;;;;;;;6.40;4.45;;;;;;;12.67;81.14;97178.02;1779051;81;21000;-83
2021/09/19 06:00:22;;;;;;;7.40;4.87;;;;;;;12.64;80.88;97172.39;1779140;80;21012;-84
2021/09/19 06:02:48;;;;;;;8.08;5.30;;;;;;;12.62;80.99;97174.25;1779246;80;21047;-83
2021/09/19 06:05:15;;;;;;;9.55;5.22;;;;;;;12.62;81.08;97173.41;1769026;81;21033;-83
2021/09/19 06:07:43;;;;;;;7.22;5.20;;;;;;;12.60;80.71;97172.15;1753382;82;21085;-83
2021/09/19 06:10:10;;;;;;;6.37;5.28;;;;;;;12.60;80.86;97177.47;1753285;82;21582;-83
2021/09/19 06:12:37;;;;;;;6.47;5.28;;;;;;;12.61;80.86;97173.86;1744526;80;21419;-84
2021/09/19 06:15:07;;;;;;;10.20;6.03;;;;;;;12.65;80.75;97178.09;1724948;81;21050;-83
2021/09/19 06:17:34;;;;;;;8.05;4.87;;;;;;;12.68;80.54;97177.91;1756191;79;21010;-84
2021/09/19 06:20:01;;;;;;;6.42;5.03;;;;;;;12.73;80.48;97180.81;1753510;81;21037;-83
2021/09/19 06:22:28;;;;;;;10.43;4.92;;;;;;;12.77;80.31;97180.59;1753193;82;21065;-80
2021/09/19 06:24:55;;;;;;;7.47;4.50;;;;;;;12.83;80.44;97184.70;1765192;80;21037;-79
2021/09/19 06:27:21;;;;;;;7.72;4.50;;;;;;;12.86;80.37;97179.23;1784064;80;21518;-80
2021/09/19 06:29:48;;;;;;;5.35;4.30;;;;;;;12.92;80.43;97190.04;1762007;80;21029;-79
2021/09/19 06:32:15;;;;;;;6.28;4.50;;;;;;;12.96;80.43;97182.75;1744567;81;20976;-78
2021/09/19 06:34:42;;;;;;;8.78;4.78;;;;;;;13.00;80.17;97179.84;1740446;82;21057;-78
2021/09/19 06:37:08;;;;;;;5.00;4.10;;;;;;;13.06;79.80;97178.20;1742387;80;21050;-79
2021/09/19 06:39:35;;;;;;;5.28;4.28;;;;;;;13.13;79.57;97177.88;1732664;82;21021;-78
2021/09/19 06:42:03;;;;;;;4.95;4.08;;;;;;;13.19;79.45;97175.75;1753682;81;20965;-78
2021/09/19 06:44:29;;;;;;;5.33;4.30;;;;;;;13.26;79.29;97175.41;1779273;80;21039;-78
2021/09/19 06:46:58;;;;;;;6.60;4.50;;;;;;;13.33;78.24;97174.99;1765366;80;20960;-78
2021/09/19 06:49:25;;;;;;;5.28;4.35;;;;;;;13.41;78.23;97169.75;1758547;81;21001;-78
2021/09/19 06:51:53;;;;;;;6.75;4.30;;;;;;;13.49;77.08;97168.02;1751082;82;21010;-78
2021/09/19 06:54:20;;;;;;;5.40;4.42;;;;;;;13.58;77.75;97167.03;1758894;81;21022;-78
2021/09/19 06:56:48;;;;;;;6.15;4.22;;;;;;;13.65;77.81;97175.55;1778520;81;21007;-78
2021/09/19 06:59:16;;;;;;;4.40;4.00;;;;;;;13.72;77.73;97179.59;1766315;80;21041;-79
2021/09/19 07:01:44;;;;;;;4.67;3.92;;;;;;;13.79;77.66;97181.42;1747768;82;21022;-79
2021/09/19 07:04:10;;;;;;;5.37;4.33;;;;;;;13.86;77.36;97178.81;1747756;82;21033;-79
2021/09/19 07:06:37;;;;;;;4.37;3.83;;;;;;;13.92;77.23;97176.29;1747675;82;21060;-78
2021/09/19 07:09:06;;;;;;;6.15;4.22;;;;;;;13.99;76.54;97174.98;1752718;81;20956;-78
2021/09/19 07:11:33;;;;;;;6.58;4.45;;;;;;;14.07;76.65;97175.88;1737960;82;21012;-79
2021/09/19 07:14:00;;;;;;;5.40;4.25;;;;;;;14.15;76.47;97178.09;1773814;80;20944;-78
2021/09/19 07:16:26;;;;;;;5.87;4.03;;;;;;;14.22;75.79;97179.94;1748907;81;20998;-78
2021/09/19 07:18:52;;;;;;;4.30;3.90;;;;;;;14.27;74.67;97169.88;1778498;81;21061;-79
2021/09/19 07:21:19;;;;;;;4.35;3.65;;;;;;;14.34;75.10;97169.05;1768804;80;21399;-78
2021/09/19 07:23:45;;;;;;;4.08;3.52;;;;;;;14.42;75.02;97168.59;1747814;82;21053;-81
2021/09/19 07:26:12;;;;;;;3.77;3.40;;;;;;;14.50;74.96;97164.52;1747811;82;21033;-81
2021/09/19 07:28:39;;;;;;;3.95;3.17;;;;;;;14.61;74.98;97166.56;1747672;82;20994;-80
2021/09/19 07:31:06;;;;;;;6.10;3.70;;;;;;;14.69;74.88;97166.09;1706289;82;21032;-80
2021/09/19 07:33:32;;;;;;;3.77;3.40;;;;;;;14.76;74.59;97170.63;1753480;80;20974;-81
2021/09/19 07:36:00;;;;;;;3.77;3.22;;;;;;;14.84;74.23;97166.16;1736569;83;21015;-81
2021/09/19 07:38:27;;;;;;;3.27;2.95;;;;;;;14.91;73.42;97170.19;1736732;82;21050;-74
2021/09/19 07:40:56;;;;;;;3.05;2.75;;;;;;;15.02;74.08;97167.72;1736656;82;21050;-74
2021/09/19 07:43:23;;;;;;;3.47;3.17;;;;;;;15.13;73.49;97171.53;1736503;82;20975;-75
2021/09/19 07:45:49;;;;;;;3.77;3.12;;;;;;;15.27;71.56;97174.21;1741576;81;20978;-75
2021/09/19 07:48:17;;;;;;;4.92;2.83;;;;;;;15.43;72.32;97171.45;1736854;81;21483;-75
2021/09/19 07:50:44;;;;;;;2.90;2.70;;;;;;;15.58;72.58;97168.77;1736604;82;21019;-74
2021/09/19 07:53:12;;;;;;;3.58;2.50;;;;;;;15.69;71.53;97170.27;1736301;82;21482;-74
2021/09/19 07:55:39;;;;;;;2.62;2.42;;;;;;;15.82;69.93;97170.83;1736379;82;20998;-75
2021/09/19 07:58:06;;;;;;;3.95;2.70;;;;;;;15.89;67.36;97168.13;1744862;82;21001;-75
2021/09/19 08:00:33;;;;;;;3.02;2.60;;;;;;;15.94;69.73;97164.71;1746201;81;20976;-74
2021/09/19 08:02:59;;;;;;;3.22;2.70;;;;;;;16.03;69.12;97159.73;1743870;82;20995;-74
2021/09/19 08:05:26;;;;;;;3.42;2.70;;;;;;;16.13;69.02;97172.00;1746724;82;21058;-75
2021/09/19 08:07:53;;;;;;;3.77;3.10;;;;;;;16.20;68.32;97171.99;1746877;82;21432;-75
2021/09/19 08:10:21;;;;;;;3.33;2.77;;;;;;;16.26;67.38;97172.05;1746898;81;21041;-81
2021/09/19 08:12:48;;;;;;;2.92;2.55;;;;;;;16.26;67.25;97172.91;1747253;82;21018;-81
2021/09/19 08:15:17;;;;;;;3.45;2.45;;;;;;;16.33;68.37;97169.36;1743104;82;20982;-81
2021/09/19 08:17:46;;;;;;;2.45;2.08;;;;;;;16.39;66.62;97171.62;1746712;81;20959;-80
2021/09/19 08:20:15;;;;;;;2.22;2.02;;;;;;;16.46;65.33;97172.06;1746762;82;20958;-81
2021/09/19 08:22:42;;;;;;;1.60;1.50;;;;;;;16.55;65.03;97179.48;1745987;81;21006;-82
2021/09/19 08:25:11;;;;;;;4.35;3.72;;;;;;;16.64;62.24;97175.31;1737875;82;21013;-81
2021/09/19 08:27:40;;;;;;;2.33;1.60;;;;;;;16.73;59.13;97173.36;1742813;81;20983;-83
2021/09/19 08:30:10;;;;;;;2.12;1.92;;;;;;;16.81;59.26;97168.81;1740251;81;21027;-82
2021/09/19 08:32:38;;;;;;;5.25;1.62;;;;;;;16.82;60.98;97163.00;1741875;81;21006;-82
2021/09/19 08:35:07;;;;;;;2.83;2.40;;;;;;;16.84;60.44;97163.73;1746529;81;20970;-83
2021/09/19 08:37:34;;;;;;;2.50;2.10;;;;;;;16.88;60.81;97159.89;1746047;82;21165;-83
2021/09/19 08:40:01;;;;;;;1.47;1.37;;;;;;;16.93;61.04;97160.92;1757042;81;20982;-82
2021/09/19 08:42:28;;;;;;;2.15;1.92;;;;;;;16.98;58.19;97163.64;1766951;81;20946;-83
2021/09/19 08:44:54;;;;;;;2.60;1.60;;;;;;;17.01;58.74;97163.44;1758280;81;21041;-82
2021/09/19 08:47:22;;;;;;;2.37;1.50;;;;;;;17.10;59.42;97166.45;1749608;80;20987;-82
2021/09/19 08:49:48;;;;;;;1.42;1.20;;;;;;;17.13;56.85;97168.45;1748663;81;21010;-81
2021/09/19 08:52:15;;;;;;;1.35;1.25;;;;;;;17.20;58.42;97169.36;1747537;82;21368;-81
2021/09/19 08:54:41;;;;;;;1.40;1.30;;;;;;;17.21;56.11;97159.88;1747831;82;20990;-81
2021/09/19 08:57:08;;;;;;;2.02;1.40;;;;;;;17.26;53.91;97163.56;1746237;81;21404;-81
2021/09/19 08:59:51;;;;;;;1.30;1.20;;;;;;;17.33;55.08;97168.88;1750219;81;21002;-81
2021/09/19 09:02:20;;;;;;;1.10;1.00;;;;;;;17.40;51.31;97176.00;1747573;82;21014;-81
2021/09/19 09:04:56;;;;;;;1.32;1.22;;;;;;;17.45;51.36;97163.61;1745412;82;21057;-81
2021/09/19 09:07:25;;;;;;;1.30;1.20;;;;;;;17.49;51.91;97154.39;1717747;83;21083;-82
2021/09/19 09:09:57;;;;;;;1.37;1.25;;;;;;;17.55;53.76;97160.17;1731212;82;21444;-83
2021/09/19 09:12:37;;;;;;;1.40;1.30;;;;;;;17.69;54.55;97165.02;1762494;81;20956;-85
2021/09/19 09:15:07;;;;;;;2.62;1.52;;;;;;;17.79;50.35;97156.69;1750634;82;21043;-75
2021/09/19 09:17:34;;;;;;;1.27;1.17;;;;;;;17.90;50.63;97152.36;1707242;84;20975;-76
2021/09/19 09:20:02;;;;;;;1.37;1.27;;;;;;;18.01;53.98;97152.42;1725266;82;21029;-75
2021/09/19 09:22:33;;;;;;;1.60;1.50;;;;;;;18.14;54.88;97151.56;1733442;81;21052;-77
2021/09/19 09:25:15;;;;;;;2.45;1.25;;;;;;;18.31;53.94;97144.94;1738800;80;21052;-75
2021/09/19 09:27:48;;;;;;;2.25;1.37;;;;;;;18.42;52.04;97140.95;1743178;82;21014;-76
2021/09/19 09:30:22;;;;;;;1.50;1.40;;;;;;;18.59;53.50;97149.06;1746122;80;21052;-77
2021/09/19 09:32:55;;;;;;;;;;;;;;;18.76;53.63;97163.52;1749242;82;21514;-80
2021/09/19 09:35:26;;;;;;;1.40;1.30;;;;;;;18.82;51.62;97159.88;1748264;81;20107;-78
2021/09/19 09:37:53;;;;;;;1.30;1.20;;;;;;;18.88;51.56;97163.89;1746883;82;21010;-77
2021/09/19 09:40:26;;;;;;;1.20;1.10;;;;;;;19.00;52.18;97152.22;1747291;82;21078;-77
2021/09/19 09:43:09;;;;;;;1.40;1.30;;;;;;;19.07;51.28;97155.32;1746762;82;21453;-79
2021/09/19 09:45:40;;;;;;;5.97;4.42;;;;;;;19.13;49.05;97153.97;1761664;81;21025;-74
2021/09/19 09:48:31;;;;;;;2.95;1.45;;;;;;;19.20;50.92;97159.23;1772091;81;21041;-75
2021/09/19 09:51:00;;;;;;;1.40;1.30;;;;;;;19.30;50.79;97158.01;1734187;82;21069;-78
2021/09/19 09:53:27;;;;;;;1.40;1.30;;;;;;;19.41;49.79;97164.36;1736171;82;21045;-78
2021/09/19 09:55:58;;;;;;;2.35;1.37;;;;;;;19.38;50.61;97151.55;1738946;81;20986;-78
2021/09/19 09:58:26;;;;;;;1.47;1.37;;;;;;;19.42;47.72;97160.22;1744418;82;21443;-79
2021/09/19 10:00:56;;;;;;;1.30;1.20;;;;;;;19.50;48.85;97168.53;1744011;82;21049;-76
2021/09/19 10:03:24;;;;;;;2.52;1.12;;;;;;;19.46;46.55;97171.09;1768855;80;21013;-76
2021/09/19 10:05:50;;;;;;;0.93;0.90;;;;;;;19.41;46.72;97166.57;1736310;80;21003;-76
2021/09/19 10:08:17;;;;;;;1.10;1.00;;;;;;;19.43;47.47;97170.48;1722829;83;21494;-76
2021/09/19 10:10:44;;;;;;;1.07;0.90;;;;;;;19.51;46.72;97170.71;1715988;82;20977;-76
2021/09/19 10:13:13;;;;;;;1.05;0.95;;;;;;;19.73;46.61;97169.84;1733598;81;21060;-76
2021/09/19 10:15:42;;;;;;;1.15;1.05;;;;;;;19.94;46.92;97162.86;1742635;81;21042;-76
2021/09/19 10:18:13;;;;;;;1.15;1.00;;;;;;;19.96;47.55;97164.45;1729801;82;21365;-78
2021/09/19 10:20:45;;;;;;;1.60;1.20;;;;;;;19.94;48.25;97168.24;1714290;83;21071;-76
2021/09/19 10:23:28;;;;;;;1.17;1.02;;;;;;;19.89;48.33;97178.88;1728958;83;21565;-76
2021/09/19 10:26:08;;;;;;;3.58;2.47;;;;;;;19.66;47.86;97175.36;1727165;81;21038;-75
2021/09/19 10:28:43;;;;;;;1.12;1.00;;;;;;;19.51;48.21;97180.98;1729961;82;20979;-76
2021/09/19 10:31:15;;;;;;;1.35;1.00;;;;;;;19.39;49.56;97180.13;1734580;82;20992;-75
2021/09/19 10:33:46;;;;;;;1.40;1.20;;;;;;;19.36;50.49;97184.89;1729418;83;21040;-75
2021/09/19 10:36:36;;;;;;;4.47;1.10;;;;;;;19.34;51.32;97186.83;1726444;83;21007;-75
2021/09/19 10:39:38;;;;;;;2.47;1.40;;;;;;;19.31;50.99;97185.23;1734986;81;21009;-76
2021/09/19 10:42:25;;;;;;;1.42;1.32;;;;;;;19.20;51.28;97189.26;1741150;81;21080;-76
2021/09/19 10:45:00;;;;;;;1.50;1.40;;;;;;;18.98;51.63;97193.59;1735761;82;21004;-75
2021/09/19 10:47:45;;;;;;;1.57;1.47;;;;;;;18.77;51.87;97196.09;1730062;82;21476;-75
2021/09/19 10:50:31;;;;;;;1.62;1.52;;;;;;;18.60;52.39;97195.05;1726713;80;21067;-75
2021/09/19 10:53:21;;;;;;;2.02;1.60;;;;;;;18.43;53.02;97196.78;1731761;81;20983;-76
2021/09/19 10:56:03;;;;;;;2.27;1.52;;;;;;;18.30;53.37;97204.89;1718196;82;21048;-75
2021/09/19 10:58:39;;;;;;;2.60;1.82;;;;;;;18.17;54.00;97213.86;1735241;81;22288;-75
2021/09/19 11:01:14;;;;;;;1.75;1.62;;;;;;;17.92;54.17;97206.23;1749645;82;21023;-75
2021/09/19 11:03:47;;;;;;;6.25;2.65;;;;;;;17.84;54.74;97212.63;1728171;81;20987;-76
2021/09/19 11:06:36;;;;;;;11.78;8.00;;;;;;;17.72;55.21;97209.50;1732008;82;21401;-77
2021/09/19 11:09:26;;;;;;;2.80;2.40;;;;;;;17.60;56.09;97211.23;1713571;82;21450;-76
2021/09/19 11:12:17;;;;;;;2.98;2.37;;;;;;;17.56;57.84;97211.91;1681921;85;21141;-77
2021/09/19 11:15:06;;;;;;;2.20;2.00;;;;;;;17.55;57.25;97215.09;1751998;81;21018;-76
2021/09/19 11:17:34;;;;;;;2.40;2.20;;;;;;;17.53;58.32;97219.67;1706123;84;21058;-76
2021/09/19 11:20:22;;;;;;;3.10;2.65;;;;;;;17.47;58.25;97209.88;1714209;84;21042;-76
2021/09/19 11:22:57;;;;;;;1.90;1.75;;;;;;;17.51;58.47;97208.70;1714186;83;21018;-76
2021/09/19 11:25:24;;;;;;;1.92;1.57;;;;;;;17.61;58.95;97211.59;1714247;83;21594;-76
2021/09/19 11:27:52;;;;;;;1.80;1.70;;;;;;;18.42;57.33;97198.63;1727085;81;21008;-76
2021/09/19 11:30:21;;;;;;;2.15;1.72;;;;;;;18.50;57.22;97188.66;1726467;81;21008;-76
2021/09/19 11:32:48;;;;;;;1.85;1.60;;;;;;;18.54;57.01;97198.20;1744038;82;21022;-76
2021/09/19 11:35:16;;;;;;;2.10;1.90;;;;;;;18.55;56.91;97200.38;1743691;82;21018;-76
2021/09/19 11:37:43;;;;;;;2.67;2.15;;;;;;;18.46;56.56;97205.95;1743710;82;21018;-76
2021/09/19 11:40:14;;;;;;;3.98;2.00;;;;;;;18.49;56.84;97203.05;1734144;81;21049;-77
2021/09/19 11:42:41;;;;;;;2.30;2.10;;;;;;;18.56;56.47;97205.63;1743460;80;21065;-76